Time;durP1;ratioP1;P1;durP2;ratioP2;P2;SDS_P1;SDS_P2;PMS_P1;PMS_P2;Temp;Humidity;BMP_temperature;BMP_pressure;BME280_temperature;BME280_humidity;BME280_pressure;Samples;Min_cycle;Max_cycle;Signal;HPM_P1;HPM_P2
2023/10/13 00:02:01;;;;;;;445.43;421.63;;;17.20;99.90;;;;;;5078162;28;20480;-81
2023/10/13 00:04:27;;;;;;;414.80;392.50;;;17.20;99.90;;;;;;5057514;28;20969;-80
2023/10/13 00:06:56;;;;;;;433.93;409.93;;;17.20;99.90;;;;;;5075366;28;20407;-80
2023/10/13 00:09:32;;;;;;;480.57;454.83;;;17.10;99.90;;;;;;5075338;28;20452;-80
2023/10/13 00:12:01;;;;;;;414.13;392.33;;;17.10;99.90;;;;;;5075485;28;20513;-80
2023/10/13 00:14:33;;;;;;;405.90;384.57;;;17.10;99.90;;;;;;5076204;28;20431;-80
2023/10/13 00:17:04;;;;;;;435.87;413.17;;;17.20;99.90;;;;;;5057353;28;20415;-79
2023/10/13 00:19:37;;;;;;;412.17;390.30;;;17.20;99.90;;;;;;5075970;28;20868;-79
2023/10/13 00:22:10;;;;;;;426.07;403.63;;;17.20;99.90;;;;;;5075162;28;20514;-80
2023/10/13 00:24:43;;;;;;;413.80;391.57;;;17.20;99.90;;;;;;5075312;28;20425;-79
2023/10/13 00:27:36;;;;;;;411.77;389.77;;;17.20;99.90;;;;;;5074944;28;20753;-79
2023/10/13 00:30:22;;;;;;;417.30;395.00;;;17.20;99.90;;;;;;5074688;28;20407;-80
2023/10/13 00:32:56;;;;;;;388.57;367.80;;;17.10;99.90;;;;;;5075404;28;20517;-80
2023/10/13 00:35:29;;;;;;;403.33;382.10;;;17.20;99.90;;;;;;5075027;28;20386;-80
2023/10/13 00:38:03;;;;;;;424.40;402.07;;;17.20;99.90;;;;;;5075463;28;20391;-80
2023/10/13 00:43:28;;;;;;;423.20;400.57;;;17.10;99.90;;;;;;5078220;28;20453;-80
2023/10/13 00:45:54;;;;;;;417.23;394.93;;;17.10;99.90;;;;;;5078534;28;20422;-79
2023/10/13 00:48:32;;;;;;;393.20;372.37;;;17.20;99.90;;;;;;5059553;28;20398;-79
2023/10/13 00:51:02;;;;;;;385.53;364.10;;;17.20;99.90;;;;;;5077828;28;20444;-79
2023/10/13 00:53:40;;;;;;;401.77;380.23;;;17.20;99.90;;;;;;5059763;28;20434;-79
2023/10/13 00:56:27;;;;;;;403.77;382.73;;;17.10;99.90;;;;;;5059490;28;20399;-80
2023/10/13 00:58:54;;;;;;;405.37;383.97;;;17.10;99.90;;;;;;5077519;28;20379;-79
2023/10/13 01:01:21;;;;;;;409.17;387.53;;;17.10;99.90;;;;;;5077325;28;20872;-79
2023/10/13 01:03:55;;;;;;;402.57;381.43;;;17.10;99.90;;;;;;5077226;28;20426;-79
2023/10/13 01:06:25;;;;;;;417.93;395.77;;;17.10;99.90;;;;;;5077469;28;20845;-79
2023/10/13 01:08:59;;;;;;;454.17;429.97;;;17.10;99.90;;;;;;5077333;28;20375;-79
2023/10/13 01:11:29;;;;;;;430.27;407.23;;;17.10;99.90;;;;;;5077619;28;20448;-79
2023/10/13 01:13:55;;;;;;;422.57;400.13;;;17.10;99.90;;;;;;5077010;28;20454;-79
2023/10/13 01:16:21;;;;;;;421.00;398.77;;;17.20;99.90;;;;;;5077001;28;20403;-79
2023/10/13 01:18:49;;;;;;;414.30;392.43;;;17.10;99.90;;;;;;5077296;28;20860;-79
2023/10/13 01:21:20;;;;;;;411.87;389.93;;;17.20;99.90;;;;;;5077140;28;20192;-79
2023/10/13 01:23:47;;;;;;;476.27;450.93;;;17.20;99.90;;;;;;5076568;28;20846;-79
2023/10/13 01:26:21;;;;;;;451.50;427.40;;;17.20;99.90;;;;;;5077421;28;20528;-79
2023/10/13 01:28:49;;;;;;;436.47;413.37;;;17.10;99.90;;;;;;5077232;28;20383;-79
2023/10/13 01:31:26;;;;;;;483.93;457.87;;;17.10;99.90;;;;;;5078677;28;20403;-79
2023/10/13 01:33:58;;;;;;;414.63;392.40;;;17.10;99.90;;;;;;5078091;28;20483;-79
2023/10/13 01:36:26;;;;;;;420.03;397.40;;;17.10;99.90;;;;;;5078032;28;20399;-79
2023/10/13 01:38:52;;;;;;;432.07;408.20;;;17.10;99.90;;;;;;5077409;28;20482;-79
2023/10/13 01:41:20;;;;;;;440.37;417.03;;;17.20;99.90;;;;;;5077773;28;20446;-79
2023/10/13 01:43:46;;;;;;;449.07;424.73;;;17.10;99.90;;;;;;5076911;28;20419;-79
2023/10/13 01:46:21;;;;;;;469.43;443.90;;;17.10;99.90;;;;;;5076857;28;20418;-80
2023/10/13 01:48:47;;;;;;;452.00;427.40;;;17.10;99.90;;;;;;5059233;28;20192;-79
2023/10/13 01:51:13;;;;;;;461.97;436.60;;;17.10;99.90;;;;;;5075750;28;20405;-79
2023/10/13 01:53:41;;;;;;;480.00;453.80;;;17.10;99.90;;;;;;5076900;28;20184;-79
2023/10/13 01:56:10;;;;;;;486.10;459.13;;;17.10;99.90;;;;;;5077001;28;20890;-80
2023/10/13 01:58:42;;;;;;;507.27;479.10;;;17.10;99.90;;;;;;5076764;28;20407;-79
2023/10/13 02:01:11;;;;;;;487.93;461.17;;;17.10;99.90;;;;;;5076704;28;20489;-79
2023/10/13 02:03:47;;;;;;;499.17;472.17;;;17.10;99.90;;;;;;5076797;28;20437;-78
2023/10/13 02:06:17;;;;;;;508.20;480.00;;;17.10;99.90;;;;;;5077147;28;20470;-79
2023/10/13 02:08:44;;;;;;;489.43;462.73;;;17.10;99.90;;;;;;5076646;28;20486;-79
2023/10/13 02:11:10;;;;;;;523.23;494.77;;;17.00;99.90;;;;;;5076777;28;20422;-79
2023/10/13 02:13:48;;;;;;;492.57;465.47;;;17.10;99.90;;;;;;5076808;28;20430;-79
2023/10/13 02:16:18;;;;;;;490.17;462.67;;;17.00;99.90;;;;;;5076961;28;20606;-79
2023/10/13 02:18:44;;;;;;;475.70;450.03;;;17.10;99.90;;;;;;5075636;28;20409;-79
2023/10/13 02:21:13;;;;;;;495.40;468.83;;;17.00;99.90;;;;;;5075506;28;20406;-79
2023/10/13 02:23:45;;;;;;;491.23;464.93;;;17.10;99.90;;;;;;5075638;28;20860;-78
2023/10/13 02:26:30;;;;;;;505.10;477.77;;;17.10;99.90;;;;;;5075556;28;20426;-79
2023/10/13 02:28:57;;;;;;;494.53;468.17;;;17.10;99.90;;;;;;5076030;28;20379;-79
2023/10/13 02:31:26;;;;;;;484.30;457.90;;;17.00;99.90;;;;;;5075419;28;20395;-79
2023/10/13 02:33:53;;;;;;;507.10;479.87;;;17.00;99.90;;;;;;5075536;28;20430;-79
2023/10/13 02:36:22;;;;;;;503.13;475.87;;;17.10;99.90;;;;;;5075299;28;20490;-79
2023/10/13 02:38:50;;;;;;;497.57;470.40;;;17.00;99.90;;;;;;5075767;28;20892;-79
2023/10/13 02:41:28;;;;;;;493.23;465.73;;;17.10;99.90;;;;;;5057399;28;20458;-79
2023/10/13 02:43:55;;;;;;;518.13;489.53;;;17.10;99.90;;;;;;5075295;28;20504;-79
2023/10/13 02:46:22;;;;;;;529.73;500.47;;;17.10;99.90;;;;;;5075255;28;20387;-79
2023/10/13 02:48:52;;;;;;;528.27;499.53;;;17.10;99.90;;;;;;5057166;28;20438;-79
2023/10/13 02:51:30;;;;;;;506.33;478.50;;;17.10;99.90;;;;;;5075208;28;20730;-79
2023/10/13 02:54:02;;;;;;;517.37;488.67;;;17.10;99.90;;;;;;5075194;28;20862;-79
2023/10/13 02:56:28;;;;;;;519.03;489.73;;;17.10;99.90;;;;;;5058639;28;20886;-79
2023/10/13 02:58:56;;;;;;;516.20;487.77;;;17.10;99.90;;;;;;5075068;28;20399;-79
2023/10/13 03:01:27;;;;;;;535.57;505.17;;;17.10;99.90;;;;;;5056335;28;20455;-79
2023/10/13 03:03:58;;;;;;;544.30;513.97;;;17.10;99.90;;;;;;5079988;28;20415;-79
2023/10/13 03:06:31;;;;;;;540.70;510.40;;;17.10;99.90;;;;;;5076396;28;20395;-80
2023/10/13 03:09:12;;;;;;;543.93;513.83;;;17.10;99.90;;;;;;5076552;28;20805;-79
2023/10/13 03:11:39;;;;;;;555.27;523.73;;;17.10;99.90;;;;;;5075869;28;20409;-80
2023/10/13 03:14:07;;;;;;;599.37;564.87;;;17.10;99.90;;;;;;5075784;28;20405;-79
2023/10/13 03:16:32;;;;;;;563.07;529.90;;;17.10;99.90;;;;;;5075600;28;20402;-80
2023/10/13 03:18:58;;;;;;;585.30;552.00;;;17.10;99.90;;;;;;5076127;28;20612;-80
2023/10/13 03:21:31;;;;;;;572.73;540.73;;;17.10;99.90;;;;;;5075844;28;20199;-80
2023/10/13 03:24:06;;;;;;;601.47;567.27;;;17.10;99.90;;;;;;5076334;28;20425;-80
2023/10/13 03:26:36;;;;;;;562.13;530.70;;;17.10;99.90;;;;;;5057273;28;20428;-79
2023/10/13 03:29:07;;;;;;;573.80;541.33;;;17.10;99.90;;;;;;5075722;28;20741;-79
2023/10/13 03:31:37;;;;;;;554.27;523.03;;;17.10;99.90;;;;;;5075346;28;20390;-80
2023/10/13 03:34:04;;;;;;;573.87;540.83;;;17.10;99.90;;;;;;5075612;28;20468;-80
2023/10/13 03:39:14;;;;;;;562.40;530.97;;;17.10;99.90;;;;;;5076412;28;20422;-79
2023/10/13 03:41:40;;;;;;;557.50;525.63;;;17.10;99.90;;;;;;5075209;28;20442;-81
2023/10/13 03:44:17;;;;;;;590.30;556.77;;;17.10;99.90;;;;;;5075917;28;20247;-79
2023/10/13 03:46:43;;;;;;;551.87;520.83;;;17.10;99.90;;;;;;5075500;28;20440;-79
2023/10/13 03:49:12;;;;;;;584.13;551.93;;;17.10;99.90;;;;;;5075462;28;20473;-79
2023/10/13 03:51:42;;;;;;;601.00;567.10;;;17.10;99.90;;;;;;5074894;28;20621;-80
2023/10/13 03:54:08;;;;;;;580.87;548.37;;;17.10;99.90;;;;;;5056363;28;20428;-79
2023/10/13 03:56:41;;;;;;;598.50;564.47;;;17.10;99.90;;;;;;5056379;28;20918;-80
2023/10/13 04:04:14;;;;;;;590.90;557.47;;;17.10;99.90;;;;;;5074337;28;20402;-79
2023/10/13 04:17:26;;;;;;;641.13;603.63;;;17.20;99.90;;;;;;5079008;28;20475;-79
2023/10/13 04:28:50;;;;;;;627.40;590.40;;;17.30;99.90;;;;;;5078310;28;20371;-79
2023/10/13 04:36:13;;;;;;;628.20;592.37;;;17.30;99.90;;;;;;5082135;28;20379;-78
2023/10/13 04:41:41;;;;;;;606.90;571.67;;;17.30;99.90;;;;;;5078745;28;20454;-79
2023/10/13 04:47:07;;;;;;;607.93;572.73;;;17.30;99.90;;;;;;5064367;28;20390;-79
2023/10/13 04:54:49;;;;;;;622.80;586.80;;;17.30;99.90;;;;;;5079002;28;20899;-79
2023/10/13 05:03:40;;;;;;;611.20;576.00;;;17.30;99.90;;;;;;5078704;28;20962;-80
2023/10/13 05:47:12;;;;;;;637.80;601.43;;;17.50;99.90;;;;;;5076191;28;20401;-78
2023/10/13 05:50:05;;;;;;;615.90;580.80;;;17.50;99.90;;;;;;5076198;28;20406;-78
2023/10/13 06:31:06;;;;;;;691.53;650.27;;;17.70;99.90;;;;;;5075396;28;20414;-78
2023/10/13 06:33:33;;;;;;;665.33;626.33;;;17.70;99.90;;;;;;5057455;28;20928;-79
2023/10/13 06:36:03;;;;;;;641.87;605.07;;;17.70;99.90;;;;;;5074444;28;20811;-78
2023/10/13 06:38:36;;;;;;;693.90;652.30;;;17.70;99.90;;;;;;5075345;28;20925;-79
2023/10/13 06:41:05;;;;;;;669.97;629.80;;;17.80;99.90;;;;;;5075097;28;20391;-79
2023/10/13 06:43:40;;;;;;;685.00;643.43;;;17.80;99.90;;;;;;5075794;28;20443;-79
2023/10/13 06:46:14;;;;;;;700.20;657.73;;;17.80;99.90;;;;;;5076006;28;20733;-79
2023/10/13 06:48:41;;;;;;;713.40;670.00;;;17.80;99.90;;;;;;5057301;28;20426;-79
2023/10/13 06:51:22;;;;;;;703.67;660.80;;;17.90;99.90;;;;;;5075429;28;20406;-79
2023/10/13 06:53:48;;;;;;;709.27;665.80;;;17.90;99.90;;;;;;5075496;28;20851;-78
2023/10/13 06:56:30;;;;;;;730.70;685.77;;;17.90;99.90;;;;;;5074885;28;20783;-79
2023/10/13 06:58:59;;;;;;;706.73;663.53;;;18.00;99.90;;;;;;5075088;28;20520;-79
2023/10/13 07:01:26;;;;;;;732.00;686.97;;;18.00;99.90;;;;;;5075184;28;20446;-78
2023/10/13 07:04:00;;;;;;;751.50;705.20;;;18.00;99.90;;;;;;5056663;28;20427;-78
2023/10/13 07:06:27;;;;;;;753.00;706.73;;;18.10;99.90;;;;;;5075255;28;20765;-78
2023/10/13 07:08:52;;;;;;;745.70;699.43;;;18.20;99.90;;;;;;5075319;28;20489;-79
2023/10/13 07:11:32;;;;;;;774.00;725.97;;;18.20;99.90;;;;;;5075194;28;20926;-79
2023/10/13 07:14:10;;;;;;;744.60;698.47;;;18.30;99.90;;;;;;5074629;28;20192;-79
2023/10/13 07:17:00;;;;;;;746.77;700.13;;;18.40;99.90;;;;;;5075505;28;20391;-79
2023/10/13 07:19:27;;;;;;;758.27;711.47;;;18.40;99.90;;;;;;5075296;28;20872;-79
2023/10/13 07:21:58;;;;;;;739.10;693.40;;;18.40;99.90;;;;;;5074554;28;20541;-79
2023/10/13 07:24:31;;;;;;;764.00;717.80;;;18.40;99.90;;;;;;5074878;28;20402;-78
2023/10/13 07:27:03;;;;;;;762.47;715.80;;;18.50;99.90;;;;;;5075192;28;20428;-79
2023/10/13 07:29:29;;;;;;;743.43;697.07;;;18.50;99.90;;;;;;5074775;28;20394;-79
2023/10/13 07:31:54;;;;;;;747.30;701.20;;;18.60;99.90;;;;;;5074273;28;20493;-79
2023/10/13 07:34:26;;;;;;;734.57;690.07;;;18.60;99.90;;;;;;5074865;28;20490;-79
2023/10/13 07:37:01;;;;;;;728.93;684.53;;;18.60;99.90;;;;;;5077869;28;20179;-79
2023/10/13 07:39:28;;;;;;;737.17;692.07;;;18.70;99.90;;;;;;5077099;28;20913;-79
2023/10/13 07:41:55;;;;;;;717.23;672.57;;;18.70;99.90;;;;;;5057039;28;20454;-79
2023/10/13 07:44:31;;;;;;;719.17;674.77;;;18.70;99.90;;;;;;5075700;28;20765;-79
2023/10/13 07:47:02;;;;;;;718.40;674.37;;;18.70;99.90;;;;;;5075043;28;20387;-79
2023/10/13 07:49:32;;;;;;;690.60;648.67;;;18.70;99.90;;;;;;5075575;28;20454;-79
2023/10/13 07:52:23;;;;;;;700.83;658.43;;;18.80;99.90;;;;;;5074643;28;20825;-80
2023/10/13 07:57:52;;;;;;;722.63;678.43;;;18.80;99.90;;;;;;5075602;28;20482;-79
2023/10/13 08:04:04;;;;;;;715.63;671.50;;;18.90;99.90;;;;;;5074624;28;20462;-79
2023/10/13 08:06:04;;;;;;;692.63;651.43;;;19.00;99.90;;;;;;5060590;28;20503;-79
2023/10/13 08:08:40;;;;;;;668.07;628.80;;;19.10;99.90;;;;;;5056849;28;20398;-79
2023/10/13 08:13:58;;;;;;;633.90;596.93;;;19.30;99.90;;;;;;5074993;28;20441;-79
2023/10/13 08:16:45;;;;;;;624.03;587.93;;;19.30;99.90;;;;;;5075313;28;20404;-79
2023/10/13 08:19:14;;;;;;;586.83;551.93;;;19.30;99.90;;;;;;5075711;28;20378;-79
2023/10/13 08:21:57;;;;;;;596.70;562.87;;;19.40;99.90;;;;;;5074717;28;20808;-79
2023/10/13 08:24:55;;;;;;;626.03;589.87;;;19.30;99.90;;;;;;5074143;28;20415;-79
2023/10/13 08:32:59;;;;;;;551.50;520.83;;;19.40;99.90;;;;;;5073611;28;20449;-79
2023/10/13 08:35:35;;;;;;;571.80;540.50;;;19.50;99.90;;;;;;5074091;28;20436;-79
2023/10/13 08:38:04;;;;;;;536.43;507.83;;;19.60;99.90;;;;;;5074820;28;20379;-79
2023/10/13 08:43:16;;;;;;;474.67;449.57;;;19.80;99.90;;;;;;5074317;28;20499;-79
2023/10/13 08:53:31;;;;;;;383.33;363.20;;;19.90;99.90;;;;;;5073778;28;20418;-79
2023/10/13 09:07:16;;;;;;;340.53;322.37;;;20.10;99.90;;;;;;5062334;28;20390;-79
2023/10/13 09:12:35;;;;;;;327.57;309.87;;;20.20;99.90;;;;;;5077821;28;20445;-79
2023/10/13 09:18:42;;;;;;;334.47;314.63;;;20.20;99.90;;;;;;5077873;28;20390;-79
2023/10/13 09:23:20;;;;;;;322.50;305.37;;;20.30;99.90;;;;;;5077321;28;20537;-79
2023/10/13 09:25:58;;;;;;;329.20;311.60;;;20.30;99.90;;;;;;5076898;28;20561;-79
2023/10/13 09:28:27;;;;;;;322.97;305.90;;;20.40;99.90;;;;;;5077383;28;20961;-79
2023/10/13 09:30:56;;;;;;;297.93;281.63;;;20.40;99.90;;;;;;5076751;28;20399;-79
2023/10/13 09:33:36;;;;;;;327.30;310.00;;;20.40;99.90;;;;;;5058925;28;20454;-79
2023/10/13 09:36:12;;;;;;;315.60;298.80;;;20.50;99.90;;;;;;5077833;28;20815;-79
2023/10/13 09:38:47;;;;;;;315.03;297.97;;;20.70;99.90;;;;;;5077564;28;20418;-79
2023/10/13 09:41:20;;;;;;;287.30;271.33;;;20.80;99.90;;;;;;5077289;28;20383;-79
2023/10/13 09:43:46;;;;;;;289.77;273.40;;;21.00;99.90;;;;;;5076440;28;20787;-79
2023/10/13 09:46:18;;;;;;;307.20;290.87;;;21.00;99.90;;;;;;5077059;28;20395;-79
2023/10/13 09:48:46;;;;;;;262.13;247.30;;;21.10;99.90;;;;;;5078057;28;20153;-79
2023/10/13 09:51:22;;;;;;;248.43;234.13;;;21.20;99.90;;;;;;5077539;28;20399;-79
2023/10/13 09:54:06;;;;;;;211.00;197.73;;;21.30;99.90;;;;;;5077091;28;20420;-79
2023/10/13 09:56:52;;;;;;;197.87;185.30;;;21.40;99.90;;;;;;5077003;28;20434;-79
2023/10/13 09:59:35;;;;;;;204.70;192.20;;;21.60;99.90;;;;;;5077254;28;20391;-79
2023/10/13 10:02:09;;;;;;;225.97;212.17;;;21.60;99.90;;;;;;5076546;28;20530;-79
2023/10/13 10:04:51;;;;;;;189.13;176.93;;;21.50;99.90;;;;;;5082505;28;20428;-79
2023/10/13 10:07:29;;;;;;;210.93;198.47;;;21.50;99.90;;;;;;5083708;28;20371;-79
2023/10/13 10:10:00;;;;;;;208.17;195.67;;;21.50;99.90;;;;;;5083318;28;20493;-79
2023/10/13 10:12:38;;;;;;;187.97;176.10;;;21.50;99.90;;;;;;5077910;28;20958;-79
2023/10/13 10:15:13;;;;;;;225.90;212.17;;;21.50;99.90;;;;;;5080194;28;20375;-79
2023/10/13 10:17:42;;;;;;;214.40;201.37;;;21.60;99.90;;;;;;5080491;28;20462;-79
2023/10/13 10:20:14;;;;;;;222.73;209.50;;;21.50;99.90;;;;;;5081758;28;20406;-79
2023/10/13 10:22:47;;;;;;;178.27;166.57;;;21.60;99.90;;;;;;5065605;28;21062;-79
2023/10/13 10:25:25;;;;;;;180.53;169.33;;;21.90;99.90;;;;;;5084033;28;20425;-79
2023/10/13 10:27:57;;;;;;;147.53;137.33;;;22.10;99.90;;;;;;5083666;28;20425;-79
2023/10/13 10:30:33;;;;;;;146.80;136.60;;;22.40;99.90;;;;;;5083793;28;20403;-79
2023/10/13 10:33:00;;;;;;;147.53;136.87;;;22.40;99.90;;;;;;5083901;28;20471;-79
2023/10/13 10:35:29;;;;;;;135.63;125.97;;;22.40;99.90;;;;;;5083855;28;20810;-79
2023/10/13 10:38:23;;;;;;;124.97;115.87;;;22.50;71.00;;;;;;5067364;28;20410;-79
2023/10/13 10:41:00;;;;;;;126.20;116.93;;;22.60;29.70;;;;;;5085348;28;20387;-79
2023/10/13 10:43:41;;;;;;;105.33;97.10;;;22.70;1.00;;;;;;5082986;28;20481;-79
2023/10/13 10:46:10;;;;;;;115.23;106.13;;;22.60;1.00;;;;;;5082490;28;20382;-79
2023/10/13 10:48:42;;;;;;;110.97;102.27;;;22.50;1.00;;;;;;5082067;28;20379;-79
2023/10/13 10:51:57;;;;;;;113.83;105.03;;;22.40;1.00;;;;;;5081741;28;20384;-79
2023/10/13 10:54:12;;;;;;;103.10;94.87;;;22.40;1.00;;;;;;5071068;28;20427;-79
2023/10/13 10:56:38;;;;;;;115.13;106.57;;;22.30;1.00;;;;;;5083549;28;20383;-80
2023/10/13 10:59:18;;;;;;;120.13;110.87;;;22.20;1.00;;;;;;5084042;28;20486;-79
2023/10/13 11:01:47;;;;;;;102.93;94.83;;;22.20;1.00;;;;;;5085967;28;20649;-80
2023/10/13 11:04:14;;;;;;;108.83;100.13;;;22.30;2.30;;;;;;5086613;28;20772;-79
2023/10/13 11:07:00;;;;;;;98.67;89.87;;;22.30;1.00;;;;;;5085886;28;20403;-80
2023/10/13 11:12:26;;;;;;;70.50;63.67;;;22.40;1.00;;;;;;5086023;28;20915;-80
2023/10/13 11:15:39;;;;;;;57.00;50.80;;;22.60;1.00;;;;;;5082395;28;20383;-80
2023/10/13 11:17:58;;;;;;;59.70;52.63;;;22.60;1.00;;;;;;5078828;28;20413;-79
2023/10/13 11:20:43;;;;;;;63.77;57.13;;;22.60;1.00;;;;;;5081848;28;20453;-80
2023/10/13 11:23:15;;;;;;;64.20;55.60;;;22.70;1.00;;;;;;5086163;28;20446;-80
2023/10/13 11:25:45;;;;;;;62.47;55.53;;;22.70;1.00;;;;;;5082924;28;20520;-79
2023/10/13 11:28:20;;;;;;;61.20;49.37;;;22.70;1.00;;;;;;5082202;28;20399;-80
2023/10/13 11:30:50;;;;;;;56.10;50.00;;;22.70;1.00;;;;;;5082270;28;20371;-80
2023/10/13 11:33:28;;;;;;;64.37;57.67;;;22.60;1.00;;;;;;5081922;28;20421;-80
2023/10/13 11:38:27;;;;;;;55.60;48.53;;;22.90;1.00;;;;;;5085830;28;20463;-80
2023/10/13 11:46:16;;;;;;;60.00;53.43;;;23.00;1.00;;;;;;5084386;28;20383;-80
2023/10/13 11:48:54;;;;;;;52.90;46.73;;;23.00;1.00;;;;;;5085448;28;20406;-80
2023/10/13 11:51:26;;;;;;;64.07;49.90;;;23.10;1.00;;;;;;5083990;28;20741;-79
2023/10/13 11:53:52;;;;;;;53.57;44.27;;;23.00;1.00;;;;;;5080817;28;20414;-80
2023/10/13 11:56:21;;;;;;;53.57;45.87;;;23.00;1.00;;;;;;5065311;28;20417;-80
2023/10/13 11:58:48;;;;;;;52.87;44.17;;;23.20;1.00;;;;;;5083465;28;20418;-80
2023/10/13 12:11:54;;;;;;;51.30;39.10;;;22.90;1.00;;;;;;5084154;28;20837;-80
2023/10/13 12:14:21;;;;;;;54.20;45.77;;;22.90;1.00;;;;;;5082595;28;20452;-80
2023/10/13 12:16:51;;;;;;;59.07;46.37;;;22.80;1.00;;;;;;5080853;28;20409;-80
2023/10/13 12:19:24;;;;;;;54.63;40.70;;;22.70;1.00;;;;;;5087392;28;20414;-80
2023/10/13 12:21:57;;;;;;;54.03;45.53;;;22.60;1.00;;;;;;5068144;28;20442;-80
2023/10/13 12:27:02;;;;;;;55.80;36.47;;;22.60;1.00;;;;;;5087089;28;20379;-80
2023/10/13 12:29:34;;;;;;;55.50;41.57;;;22.50;1.00;;;;;;5086286;28;20403;-80
2023/10/13 12:32:13;;;;;;;52.60;38.63;;;22.60;1.00;;;;;;5066909;28;20514;-79
2023/10/13 12:53:55;;;;;;;49.60;29.47;;;22.60;1.00;;;;;;5086710;28;20988;-79
2023/10/13 12:56:28;;;;;;;48.07;31.67;;;22.60;1.00;;;;;;5086289;28;20449;-80
2023/10/13 12:58:54;;;;;;;49.07;28.10;;;22.50;1.00;;;;;;5084164;28;20387;-80
2023/10/13 13:01:25;;;;;;;49.70;29.70;;;22.60;1.00;;;;;;5070187;28;20826;-80
2023/10/13 13:03:55;;;;;;;46.47;31.00;;;22.50;1.00;;;;;;5085333;28;20428;-80
2023/10/13 13:06:26;;;;;;;48.73;28.80;;;22.50;1.00;;;;;;5067173;28;20504;-80
2023/10/13 13:08:52;;;;;;;47.83;26.93;;;22.50;1.00;;;;;;5068051;28;20402;-80
2023/10/13 13:11:18;;;;;;;48.07;30.60;;;22.60;1.00;;;;;;5085196;28;20398;-80
2023/10/13 13:13:46;;;;;;;51.37;34.57;;;22.70;1.00;;;;;;5087861;28;20433;-80
2023/10/13 13:16:12;;;;;;;46.07;28.77;;;22.60;1.00;;;;;;5084789;28;20204;-80
2023/10/13 13:18:39;;;;;;;49.70;34.50;;;22.60;1.00;;;;;;5088307;28;20444;-79
2023/10/13 13:21:06;;;;;;;53.33;32.23;;;22.60;1.00;;;;;;5086981;28;20398;-80
2023/10/13 13:23:34;;;;;;;46.73;24.83;;;22.60;1.00;;;;;;5086214;28;20455;-80
2023/10/13 13:26:00;;;;;;;45.80;25.10;;;22.60;1.00;;;;;;5084098;28;20457;-80
2023/10/13 13:28:28;;;;;;;43.80;25.47;;;22.60;1.00;;;;;;5084054;28;20438;-80
2023/10/13 13:30:55;;;;;;;48.73;23.07;;;22.60;1.00;;;;;;5083720;28;20406;-80
2023/10/13 13:33:25;;;;;;;56.63;36.27;;;22.60;1.00;;;;;;5065417;28;20435;-79
2023/10/13 13:35:55;;;;;;;53.13;27.27;;;22.70;1.00;;;;;;5083179;28;20398;-79
2023/10/13 13:38:27;;;;;;;51.43;22.80;;;22.70;1.00;;;;;;5087984;28;20411;-79
2023/10/13 13:40:56;;;;;;;50.50;20.50;;;22.80;1.00;;;;;;5070887;28;20407;-80
2023/10/13 13:43:37;;;;;;;47.00;26.97;;;22.70;1.00;;;;;;5084907;28;20450;-80
2023/10/13 13:46:09;;;;;;;45.90;19.10;;;22.80;1.00;;;;;;5085937;28;20375;-79
2023/10/13 13:48:37;;;;;;;44.17;21.10;;;22.80;1.00;;;;;;5086499;28;20411;-80
2023/10/13 13:51:14;;;;;;;43.37;22.60;;;22.80;1.00;;;;;;5069010;28;20418;-79
2023/10/13 13:53:48;;;;;;;39.73;18.07;;;22.80;1.00;;;;;;5085470;28;20430;-79
2023/10/13 13:56:18;;;;;;;42.07;18.23;;;22.80;1.00;;;;;;5087763;28;20440;-80
2023/10/13 13:58:50;;;;;;;45.00;23.53;;;22.90;1.00;;;;;;5086670;28;20899;-79
2023/10/13 14:01:21;;;;;;;44.13;19.17;;;22.90;1.00;;;;;;5089153;28;20395;-79
2023/10/13 14:03:51;;;;;;;43.27;18.37;;;22.80;1.00;;;;;;5088239;28;20442;-79
2023/10/13 14:06:26;;;;;;;41.83;18.40;;;22.90;1.00;;;;;;5088079;28;20395;-80
2023/10/13 14:08:57;;;;;;;45.97;15.97;;;22.90;1.00;;;;;;5088527;28;20535;-80
2023/10/13 14:14:36;;;;;;;49.30;15.80;;;23.00;1.00;;;;;;5088880;28;20395;-80
2023/10/13 14:17:07;;;;;;;41.13;18.60;;;23.10;1.00;;;;;;5088492;28;20449;-80
2023/10/13 14:19:33;;;;;;;40.57;16.30;;;23.10;1.00;;;;;;5070510;28;20407;-79
2023/10/13 14:22:06;;;;;;;47.23;18.20;;;23.00;1.00;;;;;;5088943;28;20852;-79
2023/10/13 14:24:43;;;;;;;45.27;20.63;;;23.00;1.00;;;;;;5070624;28;20568;-79
2023/10/13 14:27:11;;;;;;;41.53;16.80;;;22.90;1.00;;;;;;5086887;28;20403;-80
2023/10/13 14:29:40;;;;;;;39.47;17.13;;;22.90;1.00;;;;;;5068199;28;20475;-80
2023/10/13 14:32:12;;;;;;;41.23;17.93;;;22.90;1.00;;;;;;5086564;28;20431;-80
2023/10/13 14:34:39;;;;;;;36.00;14.70;;;22.80;1.00;;;;;;5085023;28;20467;-80
2023/10/13 14:37:04;;;;;;;47.87;16.47;;;22.90;1.00;;;;;;5086110;28;20456;-80
2023/10/13 14:39:30;;;;;;;40.83;16.13;;;22.90;1.00;;;;;;5085911;28;20438;-80
2023/10/13 14:41:56;;;;;;;40.17;17.80;;;22.80;1.00;;;;;;5084765;28;20195;-80
2023/10/13 14:44:26;;;;;;;38.60;14.80;;;22.80;1.00;;;;;;5086190;28;20414;-80
2023/10/13 14:46:54;;;;;;;43.37;19.87;;;22.80;1.00;;;;;;5067456;28;20238;-80
2023/10/13 14:49:23;;;;;;;40.90;19.10;;;22.70;1.00;;;;;;5085598;28;20411;-80
2023/10/13 14:51:49;;;;;;;51.43;20.67;;;22.70;1.00;;;;;;5083848;28;20501;-80
2023/10/13 14:54:16;;;;;;;36.30;15.90;;;22.60;1.00;;;;;;5083510;28;20425;-80
2023/10/13 14:56:42;;;;;;;40.30;17.20;;;22.60;1.00;;;;;;5084949;28;20778;-81
2023/10/13 14:59:16;;;;;;;43.17;17.90;;;22.60;1.00;;;;;;5086540;28;20411;-80
2023/10/13 15:01:42;;;;;;;39.60;16.67;;;22.50;1.00;;;;;;5085925;28;20473;-80
2023/10/13 15:04:08;;;;;;;40.40;15.93;;;22.50;1.00;;;;;;5087173;28;20410;-80
2023/10/13 15:06:37;;;;;;;41.60;17.70;;;22.50;1.00;;;;;;5069956;28;20414;-80
2023/10/13 15:09:03;;;;;;;39.97;18.27;;;22.40;1.00;;;;;;5086386;28;20576;-80
2023/10/13 15:11:38;;;;;;;40.60;20.10;;;22.40;1.00;;;;;;5088893;28;20398;-80
2023/10/13 15:14:07;;;;;;;40.27;20.00;;;22.40;1.00;;;;;;5088851;28;20442;-80
2023/10/13 15:16:36;;;;;;;38.17;17.70;;;22.40;1.00;;;;;;5087628;28;20472;-80
2023/10/13 15:19:06;;;;;;;41.37;19.03;;;22.40;1.00;;;;;;5087242;28;20417;-80
2023/10/13 15:21:35;;;;;;;38.60;18.57;;;22.40;1.00;;;;;;5087643;28;20403;-80
2023/10/13 15:24:14;;;;;;;42.83;18.73;;;22.40;1.00;;;;;;5086247;28;20417;-80
2023/10/13 15:26:41;;;;;;;41.17;19.70;;;22.40;1.00;;;;;;5087378;28;20387;-80
2023/10/13 15:29:12;;;;;;;37.50;20.10;;;22.40;1.00;;;;;;5085426;28;20398;-80
2023/10/13 15:31:40;;;;;;;41.93;18.53;;;22.40;1.00;;;;;;5069591;28;20390;-79
2023/10/13 15:34:14;;;;;;;36.37;16.40;;;22.30;1.00;;;;;;5084597;28;20971;-80
2023/10/13 15:36:43;;;;;;;35.20;15.87;;;22.30;1.00;;;;;;5087464;28;20398;-80
2023/10/13 15:39:10;;;;;;;39.00;18.00;;;22.30;1.00;;;;;;5087307;28;20728;-80
2023/10/13 15:41:40;;;;;;;37.70;18.03;;;22.30;1.00;;;;;;5087938;28;20444;-80
2023/10/13 15:44:10;;;;;;;39.57;15.63;;;22.30;1.00;;;;;;5087768;28;20403;-80
2023/10/13 15:46:36;;;;;;;36.40;15.80;;;22.30;1.00;;;;;;5084387;28;20410;-80
2023/10/13 15:49:05;;;;;;;38.03;17.67;;;22.30;1.00;;;;;;5084369;28;20399;-80
2023/10/13 15:51:38;;;;;;;38.17;15.80;;;22.30;1.00;;;;;;5152269;22;20494;-80
2023/10/13 15:54:04;;;;;;;38.83;17.17;;;22.20;1.00;;;;;;5055026;28;20742;-80
2023/10/13 15:56:33;;;;;;;39.77;16.37;;;22.20;1.00;;;;;;5054844;28;20384;-80
2023/10/13 15:59:01;;;;;;;40.83;17.87;;;22.20;1.00;;;;;;5036689;28;20439;-80
2023/10/13 16:01:28;;;;;;;39.33;17.30;;;22.20;1.00;;;;;;5054412;28;20391;-80
2023/10/13 16:03:54;;;;;;;43.77;16.80;;;22.20;1.00;;;;;;5055039;28;20420;-80
2023/10/13 16:06:25;;;;;;;38.80;20.90;;;22.10;1.00;;;;;;5055046;28;20427;-80
2023/10/13 16:08:51;;;;;;;40.17;20.10;;;22.10;1.00;;;;;;5054984;28;20417;-80
2023/10/13 16:11:18;;;;;;;47.37;22.17;;;22.10;1.00;;;;;;5057918;28;20391;-80
2023/10/13 16:13:45;;;;;;;47.17;20.17;;;22.10;1.00;;;;;;5058225;28;20453;-80
2023/10/13 16:16:22;;;;;;;40.70;22.97;;;22.00;1.00;;;;;;5058625;28;20800;-80
2023/10/13 16:18:49;;;;;;;42.78;25.10;;;22.00;1.00;;;;;;5058534;28;20422;-80
2023/10/13 16:21:15;;;;;;;39.87;20.40;;;21.90;1.00;;;;;;5057974;28;20177;-80
2023/10/13 16:23:47;;;;;;;39.63;20.33;;;22.00;1.00;;;;;;5040480;28;20454;-80